sensor_id;sensor_type;location;lat;lon;timestamp;temperature;humidity
22202;DHT22;11266;51.522;6.302;2024-02-23T00:00:35;5.80;99.90
22202;DHT22;11266;51.522;6.302;2024-02-23T00:01:21;5.80;99.90
22202;DHT22;11266;51.522;6.302;2024-02-23T00:02:06;5.70;99.90
22202;DHT22;11266;51.522;6.302;2024-02-23T00:02:52;5.70;99.90
22202;DHT22;11266;51.522;6.302;2024-02-23T00:03:39;5.70;99.90
22202;DHT22;11266;51.522;6.302;2024-02-23T00:04:25;5.70;99.90
22202;DHT22;11266;51.522;6.302;2024-02-23T00:05:10;5.60;99.90
22202;DHT22;11266;51.522;6.302;2024-02-23T00:05:56;5.70;99.90
22202;DHT22;11266;51.522;6.302;2024-02-23T00:06:41;5.70;99.90
22202;DHT22;11266;51.522;6.302;2024-02-23T00:07:27;5.70;99.90
22202;DHT22;11266;51.522;6.302;2024-02-23T00:08:12;5.60;99.90
22202;DHT22;11266;51.522;6.302;2024-02-23T00:08:58;5.60;99.90
22202;DHT22;11266;51.522;6.302;2024-02-23T00:09:43;5.60;99.90
22202;DHT22;11266;51.522;6.302;2024-02-23T00:10:29;5.60;99.90
22202;DHT22;11266;51.522;6.302;2024-02-23T00:11:15;5.50;99.90
22202;DHT22;11266;51.522;6.302;2024-02-23T00:12:00;5.50;99.90
22202;DHT22;11266;51.522;6.302;2024-02-23T00:12:46;5.60;99.90
22202;DHT22;11266;51.522;6.302;2024-02-23T00:13:33;5.50;99.90
22202;DHT22;11266;51.522;6.302;2024-02-23T00:14:18;5.50;99.90
22202;DHT22;11266;51.522;6.302;2024-02-23T00:15:04;5.60;99.90
22202;DHT22;11266;51.522;6.302;2024-02-23T00:15:50;5.60;99.90
22202;DHT22;11266;51.522;6.302;2024-02-23T00:16:39;5.50;99.90
22202;DHT22;11266;51.522;6.302;2024-02-23T00:17:25;5.50;99.90
22202;DHT22;11266;51.522;6.302;2024-02-23T00:18:11;5.50;99.90
22202;DHT22;11266;51.522;6.302;2024-02-23T00:18:58;5.50;99.90
22202;DHT22;11266;51.522;6.302;2024-02-23T00:19:45;5.60;99.90
22202;DHT22;11266;51.522;6.302;2024-02-23T00:20:31;5.50;99.90
22202;DHT22;11266;51.522;6.302;2024-02-23T00:21:17;5.50;99.90
22202;DHT22;11266;51.522;6.302;2024-02-23T00:22:02;5.40;99.90
22202;DHT22;11266;51.522;6.302;2024-02-23T00:22:48;5.40;99.90
22202;DHT22;11266;51.522;6.302;2024-02-23T00:23:34;5.40;99.90
22202;DHT22;11266;51.522;6.302;2024-02-23T00:24:19;5.40;99.90
22202;DHT22;11266;51.522;6.302;2024-02-23T00:25:08;5.40;99.90
22202;DHT22;11266;51.522;6.302;2024-02-23T00:25:53;5.40;99.90
22202;DHT22;11266;51.522;6.302;2024-02-23T00:26:39;5.40;99.90
22202;DHT22;11266;51.522;6.302;2024-02-23T00:27:24;5.40;99.90
22202;DHT22;11266;51.522;6.302;2024-02-23T00:28:10;5.40;99.90
22202;DHT22;11266;51.522;6.302;2024-02-23T00:28:55;5.30;99.90
22202;DHT22;11266;51.522;6.302;2024-02-23T00:29:41;5.40;99.90
22202;DHT22;11266;51.522;6.302;2024-02-23T00:30:27;5.40;99.90
22202;DHT22;11266;51.522;6.302;2024-02-23T00:31:12;5.30;99.90
22202;DHT22;11266;51.522;6.302;2024-02-23T00:31:58;5.30;99.90
22202;DHT22;11266;51.522;6.302;2024-02-23T00:32:43;5.30;99.90
22202;DHT22;11266;51.522;6.302;2024-02-23T00:33:29;5.30;99.90
22202;DHT22;11266;51.522;6.302;2024-02-23T00:34:15;5.20;99.90
22202;DHT22;11266;51.522;6.302;2024-02-23T00:35:01;5.20;99.90
22202;DHT22;11266;51.522;6.302;2024-02-23T00:35:46;5.20;99.90
22202;DHT22;11266;51.522;6.302;2024-02-23T00:36:32;5.30;99.90
22202;DHT22;11266;51.522;6.302;2024-02-23T00:37:17;5.30;99.90
22202;DHT22;11266;51.522;6.302;2024-02-23T00:38:03;5.20;99.90
22202;DHT22;11266;51.522;6.302;2024-02-23T00:38:49;5.20;99.90
22202;DHT22;11266;51.522;6.302;2024-02-23T00:39:34;5.20;99.90
22202;DHT22;11266;51.522;6.302;2024-02-23T00:40:21;5.10;99.90
22202;DHT22;11266;51.522;6.302;2024-02-23T00:41:09;5.20;99.90
22202;DHT22;11266;51.522;6.302;2024-02-23T00:41:54;5.20;99.90
22202;DHT22;11266;51.522;6.302;2024-02-23T00:42:40;5.20;99.90
22202;DHT22;11266;51.522;6.302;2024-02-23T00:43:25;5.20;99.90
22202;DHT22;11266;51.522;6.302;2024-02-23T00:44:12;5.20;99.90
22202;DHT22;11266;51.522;6.302;2024-02-23T00:44:57;5.20;99.90
22202;DHT22;11266;51.522;6.302;2024-02-23T00:45:43;5.20;99.90
22202;DHT22;11266;51.522;6.302;2024-02-23T00:46:29;5.20;99.90
22202;DHT22;11266;51.522;6.302;2024-02-23T00:47:14;5.30;99.90
22202;DHT22;11266;51.522;6.302;2024-02-23T00:48:00;5.20;99.90
22202;DHT22;11266;51.522;6.302;2024-02-23T00:48:46;5.20;99.90
22202;DHT22;11266;51.522;6.302;2024-02-23T00:49:32;5.20;99.90
22202;DHT22;11266;51.522;6.302;2024-02-23T00:50:17;5.20;99.90
22202;DHT22;11266;51.522;6.302;2024-02-23T00:51:03;5.20;99.90
22202;DHT22;11266;51.522;6.302;2024-02-23T00:51:49;5.20;99.90
22202;DHT22;11266;51.522;6.302;2024-02-23T00:52:34;5.20;99.90
22202;DHT22;11266;51.522;6.302;2024-02-23T00:53:20;5.20;99.90
22202;DHT22;11266;51.522;6.302;2024-02-23T00:54:05;5.20;99.90
22202;DHT22;11266;51.522;6.302;2024-02-23T00:54:53;5.20;99.90
22202;DHT22;11266;51.522;6.302;2024-02-23T00:55:38;5.20;99.90
22202;DHT22;11266;51.522;6.302;2024-02-23T00:56:24;5.20;99.90
22202;DHT22;11266;51.522;6.302;2024-02-23T00:57:10;5.20;99.90
22202;DHT22;11266;51.522;6.302;2024-02-23T00:57:56;5.30;99.90
22202;DHT22;11266;51.522;6.302;2024-02-23T00:58:42;5.30;99.90
22202;DHT22;11266;51.522;6.302;2024-02-23T00:59:27;5.20;99.90
22202;DHT22;11266;51.522;6.302;2024-02-23T01:00:13;5.20;99.90
22202;DHT22;11266;51.522;6.302;2024-02-23T01:01:00;5.30;99.90
22202;DHT22;11266;51.522;6.302;2024-02-23T01:01:46;5.30;99.90
22202;DHT22;11266;51.522;6.302;2024-02-23T01:02:31;5.30;99.90
22202;DHT22;11266;51.522;6.302;2024-02-23T01:03:18;5.20;99.90
22202;DHT22;11266;51.522;6.302;2024-02-23T01:04:04;5.20;99.90
22202;DHT22;11266;51.522;6.302;2024-02-23T01:04:49;5.20;99.90
22202;DHT22;11266;51.522;6.302;2024-02-23T01:05:35;5.20;99.90
22202;DHT22;11266;51.522;6.302;2024-02-23T01:06:21;5.20;99.90
22202;DHT22;11266;51.522;6.302;2024-02-23T01:07:06;5.20;99.90
22202;DHT22;11266;51.522;6.302;2024-02-23T01:07:52;5.20;99.90
22202;DHT22;11266;51.522;6.302;2024-02-23T01:08:37;5.20;99.90
22202;DHT22;11266;51.522;6.302;2024-02-23T01:09:25;5.20;99.90
22202;DHT22;11266;51.522;6.302;2024-02-23T01:10:11;5.20;99.90
22202;DHT22;11266;51.522;6.302;2024-02-23T01:10:56;5.20;99.90
22202;DHT22;11266;51.522;6.302;2024-02-23T01:11:44;5.20;99.90
22202;DHT22;11266;51.522;6.302;2024-02-23T01:12:30;5.20;99.90
22202;DHT22;11266;51.522;6.302;2024-02-23T01:13:15;5.20;99.90
22202;DHT22;11266;51.522;6.302;2024-02-23T01:14:01;5.20;99.90
22202;DHT22;11266;51.522;6.302;2024-02-23T01:14:47;5.20;99.90
22202;DHT22;11266;51.522;6.302;2024-02-23T01:15:33;5.20;99.90
22202;DHT22;11266;51.522;6.302;2024-02-23T01:16:19;5.20;99.90
22202;DHT22;11266;51.522;6.302;2024-02-23T01:17:05;5.20;99.90
22202;DHT22;11266;51.522;6.302;2024-02-23T01:17:50;5.20;99.90
22202;DHT22;11266;51.522;6.302;2024-02-23T01:18:36;5.20;99.90
22202;DHT22;11266;51.522;6.302;2024-02-23T01:19:22;5.20;99.90
22202;DHT22;11266;51.522;6.302;2024-02-23T01:20:09;5.20;99.90
22202;DHT22;11266;51.522;6.302;2024-02-23T01:20:56;5.30;99.90
22202;DHT22;11266;51.522;6.302;2024-02-23T01:21:42;5.30;99.90
22202;DHT22;11266;51.522;6.302;2024-02-23T01:22:28;5.30;99.90
22202;DHT22;11266;51.522;6.302;2024-02-23T01:23:14;5.20;99.90
22202;DHT22;11266;51.522;6.302;2024-02-23T01:23:59;5.30;99.90
22202;DHT22;11266;51.522;6.302;2024-02-23T01:24:46;5.30;99.90
22202;DHT22;11266;51.522;6.302;2024-02-23T01:25:31;5.20;99.90
22202;DHT22;11266;51.522;6.302;2024-02-23T01:26:17;5.20;99.90
22202;DHT22;11266;51.522;6.302;2024-02-23T01:27:03;5.20;99.90
22202;DHT22;11266;51.522;6.302;2024-02-23T01:27:48;5.20;99.90
22202;DHT22;11266;51.522;6.302;2024-02-23T01:28:34;5.20;99.90
22202;DHT22;11266;51.522;6.302;2024-02-23T01:29:20;5.20;99.90
22202;DHT22;11266;51.522;6.302;2024-02-23T01:30:06;5.20;99.90
22202;DHT22;11266;51.522;6.302;2024-02-23T01:30:51;5.20;99.90
22202;DHT22;11266;51.522;6.302;2024-02-23T01:31:37;5.20;99.90
22202;DHT22;11266;51.522;6.302;2024-02-23T01:32:23;5.10;99.90
22202;DHT22;11266;51.522;6.302;2024-02-23T01:33:08;5.30;99.90
22202;DHT22;11266;51.522;6.302;2024-02-23T01:33:54;5.30;99.90
22202;DHT22;11266;51.522;6.302;2024-02-23T01:34:40;5.20;99.90
22202;DHT22;11266;51.522;6.302;2024-02-23T01:35:25;5.20;99.90
22202;DHT22;11266;51.522;6.302;2024-02-23T01:36:11;5.30;99.90
22202;DHT22;11266;51.522;6.302;2024-02-23T01:36:56;5.20;99.90
22202;DHT22;11266;51.522;6.302;2024-02-23T01:37:42;5.20;99.90
22202;DHT22;11266;51.522;6.302;2024-02-23T01:38:28;5.20;99.90
22202;DHT22;11266;51.522;6.302;2024-02-23T01:39:17;5.20;99.90
22202;DHT22;11266;51.522;6.302;2024-02-23T01:40:03;5.20;99.90
22202;DHT22;11266;51.522;6.302;2024-02-23T01:40:49;5.20;99.90
22202;DHT22;11266;51.522;6.302;2024-02-23T01:41:35;5.20;99.90
22202;DHT22;11266;51.522;6.302;2024-02-23T01:42:21;5.20;99.90
22202;DHT22;11266;51.522;6.302;2024-02-23T01:43:07;5.20;99.90
22202;DHT22;11266;51.522;6.302;2024-02-23T01:43:52;5.20;99.90
22202;DHT22;11266;51.522;6.302;2024-02-23T01:44:38;5.10;99.90
22202;DHT22;11266;51.522;6.302;2024-02-23T01:45:24;5.10;99.90
22202;DHT22;11266;51.522;6.302;2024-02-23T01:46:09;5.10;99.90
22202;DHT22;11266;51.522;6.302;2024-02-23T01:46:55;5.20;99.90
22202;DHT22;11266;51.522;6.302;2024-02-23T01:47:41;5.10;99.90
22202;DHT22;11266;51.522;6.302;2024-02-23T01:48:26;5.10;99.90
22202;DHT22;11266;51.522;6.302;2024-02-23T01:49:12;5.10;99.90
22202;DHT22;11266;51.522;6.302;2024-02-23T01:49:59;5.20;99.90
22202;DHT22;11266;51.522;6.302;2024-02-23T01:50:45;5.20;99.90
22202;DHT22;11266;51.522;6.302;2024-02-23T01:51:31;5.10;99.90
22202;DHT22;11266;51.522;6.302;2024-02-23T01:52:17;5.10;99.90
22202;DHT22;11266;51.522;6.302;2024-02-23T01:53:04;5.10;99.90
22202;DHT22;11266;51.522;6.302;2024-02-23T01:53:50;5.10;99.90
22202;DHT22;11266;51.522;6.302;2024-02-23T01:54:36;5.10;99.90
22202;DHT22;11266;51.522;6.302;2024-02-23T01:55:22;5.10;99.90
22202;DHT22;11266;51.522;6.302;2024-02-23T01:56:08;5.10;99.90
22202;DHT22;11266;51.522;6.302;2024-02-23T01:56:56;5.10;99.90
22202;DHT22;11266;51.522;6.302;2024-02-23T01:57:42;5.10;99.90
22202;DHT22;11266;51.522;6.302;2024-02-23T01:58:29;5.00;99.90
22202;DHT22;11266;51.522;6.302;2024-02-23T01:59:15;5.00;99.90
22202;DHT22;11266;51.522;6.302;2024-02-23T02:00:01;5.00;99.90
22202;DHT22;11266;51.522;6.302;2024-02-23T02:00:47;5.10;99.90
22202;DHT22;11266;51.522;6.302;2024-02-23T02:01:34;5.10;99.90
22202;DHT22;11266;51.522;6.302;2024-02-23T02:02:20;5.10;99.90
22202;DHT22;11266;51.522;6.302;2024-02-23T02:03:05;5.10;99.90
22202;DHT22;11266;51.522;6.302;2024-02-23T02:03:51;5.20;99.90
22202;DHT22;11266;51.522;6.302;2024-02-23T02:04:37;5.10;99.90
22202;DHT22;11266;51.522;6.302;2024-02-23T02:05:22;5.20;99.90
22202;DHT22;11266;51.522;6.302;2024-02-23T02:06:09;5.10;99.90
22202;DHT22;11266;51.522;6.302;2024-02-23T02:06:57;5.10;99.90
22202;DHT22;11266;51.522;6.302;2024-02-23T02:07:43;5.20;99.90
22202;DHT22;11266;51.522;6.302;2024-02-23T02:08:30;5.20;99.90
22202;DHT22;11266;51.522;6.302;2024-02-23T02:09:16;5.20;99.90
22202;DHT22;11266;51.522;6.302;2024-02-23T02:10:02;5.20;99.90
22202;DHT22;11266;51.522;6.302;2024-02-23T02:10:49;5.20;99.90
22202;DHT22;11266;51.522;6.302;2024-02-23T02:11:34;5.20;99.90
22202;DHT22;11266;51.522;6.302;2024-02-23T02:12:27;5.10;99.90
22202;DHT22;11266;51.522;6.302;2024-02-23T02:13:13;5.20;99.90
22202;DHT22;11266;51.522;6.302;2024-02-23T02:13:58;5.20;99.90
22202;DHT22;11266;51.522;6.302;2024-02-23T02:14:44;5.20;99.90
22202;DHT22;11266;51.522;6.302;2024-02-23T02:15:29;5.20;99.90
22202;DHT22;11266;51.522;6.302;2024-02-23T02:16:15;5.20;99.90
22202;DHT22;11266;51.522;6.302;2024-02-23T02:17:00;5.30;99.90
22202;DHT22;11266;51.522;6.302;2024-02-23T02:17:46;5.30;99.90
22202;DHT22;11266;51.522;6.302;2024-02-23T02:18:32;5.20;99.90
22202;DHT22;11266;51.522;6.302;2024-02-23T02:19:18;5.30;99.90
22202;DHT22;11266;51.522;6.302;2024-02-23T02:20:03;5.20;99.90
22202;DHT22;11266;51.522;6.302;2024-02-23T02:20:55;5.20;99.90
22202;DHT22;11266;51.522;6.302;2024-02-23T02:21:42;5.20;99.90
22202;DHT22;11266;51.522;6.302;2024-02-23T02:22:27;5.20;99.90
22202;DHT22;11266;51.522;6.302;2024-02-23T02:23:13;5.20;99.90
22202;DHT22;11266;51.522;6.302;2024-02-23T02:23:59;5.20;99.90
22202;DHT22;11266;51.522;6.302;2024-02-23T02:24:44;5.30;99.90
22202;DHT22;11266;51.522;6.302;2024-02-23T02:25:31;5.20;99.90
22202;DHT22;11266;51.522;6.302;2024-02-23T02:26:17;5.20;99.90
22202;DHT22;11266;51.522;6.302;2024-02-23T02:27:03;5.20;99.90
22202;DHT22;11266;51.522;6.302;2024-02-23T02:27:48;5.30;99.90
22202;DHT22;11266;51.522;6.302;2024-02-23T02:28:34;5.20;99.90
22202;DHT22;11266;51.522;6.302;2024-02-23T02:29:20;5.20;99.90
22202;DHT22;11266;51.522;6.302;2024-02-23T02:30:06;5.10;99.90
22202;DHT22;11266;51.522;6.302;2024-02-23T02:30:52;5.10;99.90
22202;DHT22;11266;51.522;6.302;2024-02-23T02:31:40;5.10;99.90
22202;DHT22;11266;51.522;6.302;2024-02-23T02:32:26;5.10;99.90
22202;DHT22;11266;51.522;6.302;2024-02-23T02:33:11;5.10;99.90
22202;DHT22;11266;51.522;6.302;2024-02-23T02:33:57;5.10;99.90
22202;DHT22;11266;51.522;6.302;2024-02-23T02:34:42;5.10;99.90
22202;DHT22;11266;51.522;6.302;2024-02-23T02:35:28;5.10;99.90
22202;DHT22;11266;51.522;6.302;2024-02-23T02:36:14;5.10;99.90
22202;DHT22;11266;51.522;6.302;2024-02-23T02:37:00;5.10;99.90
22202;DHT22;11266;51.522;6.302;2024-02-23T02:37:46;5.10;99.90
22202;DHT22;11266;51.522;6.302;2024-02-23T02:38:32;5.20;99.90
22202;DHT22;11266;51.522;6.302;2024-02-23T02:39:18;5.10;99.90
22202;DHT22;11266;51.522;6.302;2024-02-23T02:40:04;5.10;99.90
22202;DHT22;11266;51.522;6.302;2024-02-23T02:40:50;5.10;99.90
22202;DHT22;11266;51.522;6.302;2024-02-23T02:41:36;5.00;99.90
22202;DHT22;11266;51.522;6.302;2024-02-23T02:42:21;5.00;99.90
22202;DHT22;11266;51.522;6.302;2024-02-23T02:43:07;5.10;99.90
22202;DHT22;11266;51.522;6.302;2024-02-23T02:43:53;5.10;99.90
22202;DHT22;11266;51.522;6.302;2024-02-23T02:44:38;5.10;99.90
22202;DHT22;11266;51.522;6.302;2024-02-23T02:45:24;5.00;99.90
22202;DHT22;11266;51.522;6.302;2024-02-23T02:46:09;5.00;99.90
22202;DHT22;11266;51.522;6.302;2024-02-23T02:46:55;5.00;99.90
22202;DHT22;11266;51.522;6.302;2024-02-23T02:47:41;5.00;99.90
22202;DHT22;11266;51.522;6.302;2024-02-23T02:48:26;5.10;99.90
22202;DHT22;11266;51.522;6.302;2024-02-23T02:49:12;5.00;99.90
22202;DHT22;11266;51.522;6.302;2024-02-23T02:49:58;5.00;99.90
22202;DHT22;11266;51.522;6.302;2024-02-23T02:50:44;5.00;99.90
22202;DHT22;11266;51.522;6.302;2024-02-23T02:51:29;5.00;99.90
22202;DHT22;11266;51.522;6.302;2024-02-23T02:52:15;5.00;99.90
22202;DHT22;11266;51.522;6.302;2024-02-23T02:53:00;5.10;99.90
22202;DHT22;11266;51.522;6.302;2024-02-23T02:53:46;5.10;99.90
22202;DHT22;11266;51.522;6.302;2024-02-23T02:54:32;5.10;99.90
22202;DHT22;11266;51.522;6.302;2024-02-23T02:55:17;5.10;99.90
22202;DHT22;11266;51.522;6.302;2024-02-23T02:56:06;5.10;99.90
22202;DHT22;11266;51.522;6.302;2024-02-23T02:56:52;5.10;99.90
22202;DHT22;11266;51.522;6.302;2024-02-23T02:57:39;5.00;99.90
22202;DHT22;11266;51.522;6.302;2024-02-23T02:58:25;5.00;99.90
22202;DHT22;11266;51.522;6.302;2024-02-23T02:59:10;4.90;99.90
22202;DHT22;11266;51.522;6.302;2024-02-23T02:59:56;5.00;99.90
22202;DHT22;11266;51.522;6.302;2024-02-23T03:00:42;5.00;99.90
22202;DHT22;11266;51.522;6.302;2024-02-23T03:01:28;5.00;99.90
22202;DHT22;11266;51.522;6.302;2024-02-23T03:02:14;4.90;99.90
22202;DHT22;11266;51.522;6.302;2024-02-23T03:03:01;4.90;99.90
22202;DHT22;11266;51.522;6.302;2024-02-23T03:03:47;4.90;99.90
22202;DHT22;11266;51.522;6.302;2024-02-23T03:04:32;4.90;99.90
22202;DHT22;11266;51.522;6.302;2024-02-23T03:05:18;4.80;99.90
22202;DHT22;11266;51.522;6.302;2024-02-23T03:06:03;4.80;99.90
22202;DHT22;11266;51.522;6.302;2024-02-23T03:06:50;4.80;99.90
22202;DHT22;11266;51.522;6.302;2024-02-23T03:07:36;4.80;99.90
22202;DHT22;11266;51.522;6.302;2024-02-23T03:08:21;4.80;99.90
22202;DHT22;11266;51.522;6.302;2024-02-23T03:09:07;4.80;99.90
22202;DHT22;11266;51.522;6.302;2024-02-23T03:09:52;4.90;99.90
22202;DHT22;11266;51.522;6.302;2024-02-23T03:10:39;4.90;99.90
22202;DHT22;11266;51.522;6.302;2024-02-23T03:11:25;4.80;99.90
22202;DHT22;11266;51.522;6.302;2024-02-23T03:12:10;4.80;99.90
22202;DHT22;11266;51.522;6.302;2024-02-23T03:12:56;4.90;99.90
22202;DHT22;11266;51.522;6.302;2024-02-23T03:13:41;4.80;99.90
22202;DHT22;11266;51.522;6.302;2024-02-23T03:14:27;4.90;99.90
22202;DHT22;11266;51.522;6.302;2024-02-23T03:15:13;4.90;99.90
22202;DHT22;11266;51.522;6.302;2024-02-23T03:15:59;4.80;99.90
22202;DHT22;11266;51.522;6.302;2024-02-23T03:16:45;4.80;99.90
22202;DHT22;11266;51.522;6.302;2024-02-23T03:17:33;4.80;99.90
22202;DHT22;11266;51.522;6.302;2024-02-23T03:18:18;4.80;99.90
22202;DHT22;11266;51.522;6.302;2024-02-23T03:19:04;4.80;99.90
22202;DHT22;11266;51.522;6.302;2024-02-23T03:19:49;4.80;99.90
22202;DHT22;11266;51.522;6.302;2024-02-23T03:20:37;4.80;99.90
22202;DHT22;11266;51.522;6.302;2024-02-23T03:21:23;4.80;99.90
22202;DHT22;11266;51.522;6.302;2024-02-23T03:22:08;4.80;99.90
22202;DHT22;11266;51.522;6.302;2024-02-23T03:22:54;4.80;99.90
22202;DHT22;11266;51.522;6.302;2024-02-23T03:23:40;4.80;99.90
22202;DHT22;11266;51.522;6.302;2024-02-23T03:24:26;4.80;99.90
22202;DHT22;11266;51.522;6.302;2024-02-23T03:25:11;4.80;99.90
22202;DHT22;11266;51.522;6.302;2024-02-23T03:25:57;4.80;99.90
22202;DHT22;11266;51.522;6.302;2024-02-23T03:26:43;4.80;99.90
22202;DHT22;11266;51.522;6.302;2024-02-23T03:27:29;4.80;99.90
22202;DHT22;11266;51.522;6.302;2024-02-23T03:28:14;4.80;99.90
22202;DHT22;11266;51.522;6.302;2024-02-23T03:29:00;4.80;99.90
22202;DHT22;11266;51.522;6.302;2024-02-23T03:29:45;4.80;99.90
22202;DHT22;11266;51.522;6.302;2024-02-23T03:30:31;4.80;99.90
22202;DHT22;11266;51.522;6.302;2024-02-23T03:31:17;4.80;99.90
22202;DHT22;11266;51.522;6.302;2024-02-23T03:32:02;4.80;99.90
22202;DHT22;11266;51.522;6.302;2024-02-23T03:32:48;4.80;99.90
22202;DHT22;11266;51.522;6.302;2024-02-23T03:33:34;4.80;99.90
22202;DHT22;11266;51.522;6.302;2024-02-23T03:34:19;4.80;99.90
22202;DHT22;11266;51.522;6.302;2024-02-23T03:35:06;4.80;99.90
22202;DHT22;11266;51.522;6.302;2024-02-23T03:35:52;4.80;99.90
22202;DHT22;11266;51.522;6.302;2024-02-23T03:36:37;4.80;99.90
22202;DHT22;11266;51.522;6.302;2024-02-23T03:37:23;4.80;99.90
22202;DHT22;11266;51.522;6.302;2024-02-23T03:38:08;4.80;99.90
22202;DHT22;11266;51.522;6.302;2024-02-23T03:38:54;4.80;99.90
22202;DHT22;11266;51.522;6.302;2024-02-23T03:39:39;4.80;99.90
22202;DHT22;11266;51.522;6.302;2024-02-23T03:40:25;4.80;99.90
22202;DHT22;11266;51.522;6.302;2024-02-23T03:41:10;4.80;99.90
22202;DHT22;11266;51.522;6.302;2024-02-23T03:41:56;4.90;99.90
22202;DHT22;11266;51.522;6.302;2024-02-23T03:42:41;4.90;99.90
22202;DHT22;11266;51.522;6.302;2024-02-23T03:43:27;4.90;99.90
22202;DHT22;11266;51.522;6.302;2024-02-23T03:44:13;5.00;99.90
22202;DHT22;11266;51.522;6.302;2024-02-23T03:44:58;5.00;99.90
22202;DHT22;11266;51.522;6.302;2024-02-23T03:45:44;5.00;99.90
22202;DHT22;11266;51.522;6.302;2024-02-23T03:46:29;5.10;99.90
22202;DHT22;11266;51.522;6.302;2024-02-23T03:47:15;5.00;99.90
22202;DHT22;11266;51.522;6.302;2024-02-23T03:48:03;5.00;99.90
22202;DHT22;11266;51.522;6.302;2024-02-23T03:48:49;5.00;99.90
22202;DHT22;11266;51.522;6.302;2024-02-23T03:49:35;5.00;99.90
22202;DHT22;11266;51.522;6.302;2024-02-23T03:50:24;4.90;99.90
22202;DHT22;11266;51.522;6.302;2024-02-23T03:51:09;4.90;99.90
22202;DHT22;11266;51.522;6.302;2024-02-23T03:51:55;4.90;99.90
22202;DHT22;11266;51.522;6.302;2024-02-23T03:52:41;4.90;99.90
22202;DHT22;11266;51.522;6.302;2024-02-23T03:53:26;4.90;99.90
22202;DHT22;11266;51.522;6.302;2024-02-23T03:54:12;4.80;99.90
22202;DHT22;11266;51.522;6.302;2024-02-23T03:54:57;4.80;99.90
22202;DHT22;11266;51.522;6.302;2024-02-23T03:55:43;4.80;99.90
22202;DHT22;11266;51.522;6.302;2024-02-23T03:56:28;4.70;99.90
22202;DHT22;11266;51.522;6.302;2024-02-23T03:57:14;4.70;99.90
22202;DHT22;11266;51.522;6.302;2024-02-23T03:58:00;4.80;99.90
22202;DHT22;11266;51.522;6.302;2024-02-23T03:58:46;4.80;99.90
22202;DHT22;11266;51.522;6.302;2024-02-23T03:59:31;4.70;99.90
22202;DHT22;11266;51.522;6.302;2024-02-23T04:00:17;4.80;99.90
22202;DHT22;11266;51.522;6.302;2024-02-23T04:01:04;4.70;99.90
22202;DHT22;11266;51.522;6.302;2024-02-23T04:01:50;4.80;99.90
22202;DHT22;11266;51.522;6.302;2024-02-23T04:02:35;4.80;99.90
22202;DHT22;11266;51.522;6.302;2024-02-23T04:03:21;4.80;99.90
22202;DHT22;11266;51.522;6.302;2024-02-23T04:04:07;4.80;99.90
22202;DHT22;11266;51.522;6.302;2024-02-23T04:04:52;4.80;99.90
22202;DHT22;11266;51.522;6.302;2024-02-23T04:05:39;4.80;99.90
22202;DHT22;11266;51.522;6.302;2024-02-23T04:06:24;4.80;99.90
22202;DHT22;11266;51.522;6.302;2024-02-23T04:07:10;4.80;99.90
22202;DHT22;11266;51.522;6.302;2024-02-23T04:07:55;4.80;99.90
22202;DHT22;11266;51.522;6.302;2024-02-23T04:08:41;4.80;99.90
22202;DHT22;11266;51.522;6.302;2024-02-23T04:09:27;4.80;99.90
22202;DHT22;11266;51.522;6.302;2024-02-23T04:10:13;4.80;99.90
22202;DHT22;11266;51.522;6.302;2024-02-23T04:11:04;4.80;99.90
22202;DHT22;11266;51.522;6.302;2024-02-23T04:11:50;4.80;99.90
22202;DHT22;11266;51.522;6.302;2024-02-23T04:12:35;4.90;99.90
22202;DHT22;11266;51.522;6.302;2024-02-23T04:13:21;4.80;99.90
22202;DHT22;11266;51.522;6.302;2024-02-23T04:14:06;4.80;99.90
22202;DHT22;11266;51.522;6.302;2024-02-23T04:14:52;4.80;99.90
22202;DHT22;11266;51.522;6.302;2024-02-23T04:15:38;4.90;99.90
22202;DHT22;11266;51.522;6.302;2024-02-23T04:16:24;4.90;99.90
22202;DHT22;11266;51.522;6.302;2024-02-23T04:17:11;4.80;99.90
22202;DHT22;11266;51.522;6.302;2024-02-23T04:17:57;4.80;99.90
22202;DHT22;11266;51.522;6.302;2024-02-23T04:18:42;4.80;99.90
22202;DHT22;11266;51.522;6.302;2024-02-23T04:19:28;4.80;99.90
22202;DHT22;11266;51.522;6.302;2024-02-23T04:20:14;4.90;99.90
22202;DHT22;11266;51.522;6.302;2024-02-23T04:20:59;4.90;99.90
22202;DHT22;11266;51.522;6.302;2024-02-23T04:21:45;4.90;99.90
22202;DHT22;11266;51.522;6.302;2024-02-23T04:22:30;4.90;99.90
22202;DHT22;11266;51.522;6.302;2024-02-23T04:23:16;4.90;99.90
22202;DHT22;11266;51.522;6.302;2024-02-23T04:24:01;4.90;99.90
22202;DHT22;11266;51.522;6.302;2024-02-23T04:24:47;4.90;99.90
22202;DHT22;11266;51.522;6.302;2024-02-23T04:25:33;4.90;99.90
22202;DHT22;11266;51.522;6.302;2024-02-23T04:26:18;4.90;99.90
22202;DHT22;11266;51.522;6.302;2024-02-23T04:27:05;4.90;99.90
22202;DHT22;11266;51.522;6.302;2024-02-23T04:27:50;4.90;99.90
22202;DHT22;11266;51.522;6.302;2024-02-23T04:28:40;4.90;99.90
22202;DHT22;11266;51.522;6.302;2024-02-23T04:29:26;5.00;99.90
22202;DHT22;11266;51.522;6.302;2024-02-23T04:30:12;5.00;99.90
22202;DHT22;11266;51.522;6.302;2024-02-23T04:30:57;5.00;99.90
22202;DHT22;11266;51.522;6.302;2024-02-23T04:31:43;5.00;99.90
22202;DHT22;11266;51.522;6.302;2024-02-23T04:32:28;5.00;99.90
22202;DHT22;11266;51.522;6.302;2024-02-23T04:33:14;5.00;99.90
22202;DHT22;11266;51.522;6.302;2024-02-23T04:33:59;5.00;99.90
22202;DHT22;11266;51.522;6.302;2024-02-23T04:34:45;5.00;99.90
22202;DHT22;11266;51.522;6.302;2024-02-23T04:35:30;5.00;99.90
22202;DHT22;11266;51.522;6.302;2024-02-23T04:36:19;5.10;99.90
22202;DHT22;11266;51.522;6.302;2024-02-23T04:37:06;5.00;99.90
22202;DHT22;11266;51.522;6.302;2024-02-23T04:37:52;5.00;99.90
22202;DHT22;11266;51.522;6.302;2024-02-23T04:38:37;5.00;99.90
22202;DHT22;11266;51.522;6.302;2024-02-23T04:39:23;5.00;99.90
22202;DHT22;11266;51.522;6.302;2024-02-23T04:40:09;5.00;99.90
22202;DHT22;11266;51.522;6.302;2024-02-23T04:40:55;5.00;99.90
22202;DHT22;11266;51.522;6.302;2024-02-23T04:41:41;5.00;99.90
22202;DHT22;11266;51.522;6.302;2024-02-23T04:42:27;5.00;99.90
22202;DHT22;11266;51.522;6.302;2024-02-23T04:43:13;5.00;99.90
22202;DHT22;11266;51.522;6.302;2024-02-23T04:43:58;5.00;99.90
22202;DHT22;11266;51.522;6.302;2024-02-23T04:44:45;5.00;99.90
22202;DHT22;11266;51.522;6.302;2024-02-23T04:45:31;5.00;99.90
22202;DHT22;11266;51.522;6.302;2024-02-23T04:46:17;5.10;99.90
22202;DHT22;11266;51.522;6.302;2024-02-23T04:47:02;5.10;99.90
22202;DHT22;11266;51.522;6.302;2024-02-23T04:47:48;5.00;99.90
22202;DHT22;11266;51.522;6.302;2024-02-23T04:48:33;5.00;99.90
22202;DHT22;11266;51.522;6.302;2024-02-23T04:49:21;5.00;99.90
22202;DHT22;11266;51.522;6.302;2024-02-23T04:50:07;5.00;99.90
22202;DHT22;11266;51.522;6.302;2024-02-23T04:50:52;5.00;99.90
22202;DHT22;11266;51.522;6.302;2024-02-23T04:51:38;5.00;99.90
22202;DHT22;11266;51.522;6.302;2024-02-23T04:52:24;5.00;99.90
22202;DHT22;11266;51.522;6.302;2024-02-23T04:53:09;5.00;99.90
22202;DHT22;11266;51.522;6.302;2024-02-23T04:53:55;5.00;99.90
22202;DHT22;11266;51.522;6.302;2024-02-23T04:54:40;5.00;99.90